createdAt,value
2023-01-13T00:00:12.901Z,38.13
2023-01-13T00:02:43.895Z,33.42
2023-01-13T00:05:14.173Z,43.92
2023-01-13T00:07:44.438Z,39.35
2023-01-13T00:10:14.773Z,46.30
2023-01-13T00:12:44.597Z,38.72
2023-01-13T00:15:15.080Z,46.38
2023-01-13T00:17:46.549Z,35.85
2023-01-13T00:20:18.961Z,38.65
2023-01-13T00:22:48.556Z,28.95
2023-01-13T00:25:18.682Z,42.50
2023-01-13T00:27:49.437Z,34.47
2023-01-13T00:32:54.369Z,32.47
2023-01-13T00:35:24.060Z,33.88
2023-01-13T00:37:55.575Z,43.30
2023-01-13T00:40:25.428Z,39.60
2023-01-13T00:43:12.844Z,53.97
2023-01-13T00:45:43.220Z,35.05
2023-01-13T00:48:14.915Z,43.72
2023-01-13T00:50:45.776Z,33.45
2023-01-13T00:53:17.663Z,39.42
2023-01-13T00:55:47.635Z,41.00
2023-01-13T00:58:18.595Z,34.45
2023-01-13T01:00:49.517Z,47.58
2023-01-13T01:03:22.848Z,42.00
2023-01-13T01:05:56.818Z,36.28
2023-01-13T01:08:26.347Z,41.63
2023-01-13T01:11:03.410Z,42.53
2023-01-13T01:13:34.247Z,48.63
2023-01-13T01:16:07.661Z,56.50
2023-01-13T01:18:41.760Z,55.28
2023-01-13T01:23:42.779Z,50.38
2023-01-13T01:26:14.778Z,51.08
2023-01-13T01:28:45.193Z,54.63
2023-01-13T01:31:17.085Z,45.40
2023-01-13T01:33:48.668Z,50.47
2023-01-13T01:36:23.499Z,54.63
2023-01-13T01:38:53.784Z,36.63
2023-01-13T01:41:26.148Z,49.88
2023-01-13T01:44:00.665Z,42.42
2023-01-13T01:46:33.761Z,46.83
2023-01-13T01:51:43.246Z,47.17
2023-01-13T01:54:17.474Z,36.70
2023-01-13T01:56:48.541Z,41.92
2023-01-13T01:59:19.577Z,54.00
2023-01-13T02:01:50.833Z,47.03
2023-01-13T02:04:27.849Z,45.30
2023-01-13T02:06:59.049Z,42.85
2023-01-13T02:09:28.645Z,47.30
2023-01-13T02:12:27.343Z,65.93
2023-01-13T02:14:58.220Z,32.78
2023-01-13T02:17:41.038Z,54.15
2023-01-13T02:20:41.006Z,45.70
2023-01-13T02:24:07.231Z,52.08
2023-01-13T02:27:15.186Z,36.63
2023-01-13T02:30:23.639Z,52.85
2023-01-13T02:33:08.233Z,50.15
2023-01-13T02:35:46.836Z,57.10
2023-01-13T02:38:26.601Z,43.88
2023-01-13T02:41:22.317Z,52.13
2023-01-13T02:44:08.426Z,39.95
2023-01-13T02:46:47.084Z,50.33
2023-01-13T02:49:25.214Z,39.85
2023-01-13T02:52:00.517Z,41.22
2023-01-13T02:54:31.847Z,57.50
2023-01-13T02:57:04.511Z,36.63
2023-01-13T02:59:35.852Z,41.43
2023-01-13T03:02:13.140Z,50.30
2023-01-13T03:04:52.463Z,43.70
2023-01-13T03:07:46.699Z,44.70
2023-01-13T03:10:28.906Z,68.93
2023-01-13T03:13:09.578Z,35.22
2023-01-13T03:15:49.645Z,40.60
2023-01-13T03:18:34.759Z,36.05
2023-01-13T03:21:09.459Z,30.00
2023-01-13T03:23:50.599Z,36.72
2023-01-13T03:26:28.595Z,26.02
2023-01-13T03:29:03.584Z,36.55
2023-01-13T03:31:36.079Z,33.28
2023-01-13T03:34:13.142Z,30.75
2023-01-13T03:36:45.783Z,48.08
2023-01-13T03:39:25.243Z,28.38
2023-01-13T03:42:00.168Z,28.63
2023-01-13T03:44:34.021Z,28.50
2023-01-13T03:47:12.494Z,39.15
2023-01-13T03:49:49.791Z,28.73
2023-01-13T03:52:26.511Z,36.00
2023-01-13T03:55:02.547Z,21.85
2023-01-13T03:57:36.725Z,33.50
2023-01-13T04:00:10.724Z,26.67
2023-01-13T04:02:50.667Z,24.98
2023-01-13T04:05:26.167Z,34.65
2023-01-13T04:08:04.031Z,33.30
2023-01-13T04:10:39.720Z,30.02
2023-01-13T04:13:13.697Z,20.48
2023-01-13T04:15:46.873Z,26.42
2023-01-13T04:18:19.195Z,25.65
2023-01-13T04:20:52.495Z,14.70
2023-01-13T04:23:23.723Z,28.20
2023-01-13T04:25:53.984Z,28.13
2023-01-13T04:28:25.097Z,19.10
2023-01-13T04:30:55.828Z,25.15
2023-01-13T04:33:26.452Z,16.65
2023-01-13T04:36:00.824Z,10.02
2023-01-13T04:38:33.366Z,20.60
2023-01-13T04:41:03.336Z,28.60
2023-01-13T04:43:33.496Z,10.98
2023-01-13T04:46:03.732Z,26.55
2023-01-13T04:48:33.387Z,19.73
2023-01-13T04:51:04.833Z,16.80
2023-01-13T04:53:34.955Z,17.33
2023-01-13T04:56:05.426Z,21.90
2023-01-13T04:58:34.985Z,18.63
2023-01-13T05:01:05.824Z,30.98
2023-01-13T05:03:36.165Z,23.05
2023-01-13T05:06:07.802Z,30.70
2023-01-13T05:08:39.948Z,21.90
2023-01-13T05:11:23.766Z,22.55
2023-01-13T05:14:13.290Z,29.15
2023-01-13T05:17:00.513Z,29.02
2023-01-13T05:19:32.296Z,14.00
2023-01-13T05:22:26.655Z,33.28
2023-01-13T05:25:14.675Z,30.88
2023-01-13T05:27:44.234Z,25.50
2023-01-13T05:30:14.577Z,19.02
2023-01-13T05:32:46.583Z,30.08
2023-01-13T05:35:17.740Z,22.70
2023-01-13T05:37:49.384Z,30.17
2023-01-13T05:40:40.334Z,20.73
2023-01-13T05:43:21.667Z,22.02
2023-01-13T05:45:58.703Z,20.60
2023-01-13T05:48:31.879Z,29.25
2023-01-13T05:51:01.718Z,22.70
2023-01-13T05:53:34.879Z,27.70
2023-01-13T05:56:06.833Z,33.78
2023-01-13T05:58:37.115Z,36.80
2023-01-13T06:01:10.105Z,36.78
2023-01-13T06:03:40.113Z,22.37
2023-01-13T06:06:10.354Z,30.95
2023-01-13T06:08:41.670Z,26.42
2023-01-13T06:11:12.192Z,22.02
2023-01-13T06:13:42.261Z,26.48
2023-01-13T06:16:12.214Z,21.02
2023-01-13T06:18:43.679Z,24.95
2023-01-13T06:21:14.344Z,30.00
2023-01-13T06:23:46.124Z,26.73
2023-01-13T06:26:20.207Z,19.02
2023-01-13T06:28:50.147Z,26.58
2023-01-13T06:31:19.532Z,23.08
2023-01-13T06:33:51.996Z,19.02
2023-01-13T06:36:23.760Z,16.37
2023-01-13T06:38:58.179Z,32.25
2023-01-13T06:41:42.899Z,17.48
2023-01-13T06:44:12.809Z,31.60
2023-01-13T06:46:42.078Z,30.88
2023-01-13T06:49:11.016Z,27.25
2023-01-13T06:51:40.504Z,33.92
2023-01-13T06:54:13.258Z,23.15
2023-01-13T06:56:42.351Z,26.98
2023-01-13T06:59:11.221Z,24.05
2023-01-13T07:01:42.375Z,17.65
2023-01-13T07:04:14.186Z,24.42
2023-01-13T07:06:44.228Z,20.33
2023-01-13T07:09:14.632Z,20.50
2023-01-13T07:11:43.651Z,24.50
2023-01-13T07:14:30.606Z,28.65
2023-01-13T07:16:59.550Z,18.73
2023-01-13T07:19:28.510Z,23.42
2023-01-13T07:21:57.535Z,17.05
2023-01-13T07:24:28.363Z,25.52
2023-01-13T07:26:57.716Z,27.40
2023-01-13T07:29:29.680Z,36.65
2023-01-13T07:31:59.788Z,22.20
2023-01-13T07:34:29.575Z,36.22
2023-01-13T07:36:59.401Z,33.45
2023-01-13T07:39:30.863Z,31.73
2023-01-13T07:42:17.049Z,20.95
2023-01-13T07:44:46.551Z,22.70
2023-01-13T07:47:15.270Z,15.98
2023-01-13T07:49:44.379Z,31.27
2023-01-13T07:52:13.551Z,22.83
2023-01-13T07:54:43.942Z,15.00
2023-01-13T07:57:13.180Z,20.48
2023-01-13T07:59:41.981Z,29.92
2023-01-13T08:02:13.270Z,29.65
2023-01-13T08:04:42.692Z,33.85
2023-01-13T08:07:12.114Z,25.13
2023-01-13T08:09:40.958Z,25.60
2023-01-13T08:12:28.732Z,13.30
2023-01-13T08:14:57.596Z,31.90
2023-01-13T08:17:26.465Z,29.83
2023-01-13T08:19:55.489Z,26.02
2023-01-13T08:22:26.847Z,21.35
2023-01-13T08:24:56.624Z,16.98
2023-01-13T08:27:26.940Z,28.35
2023-01-13T08:29:55.873Z,24.65
2023-01-13T08:32:24.883Z,27.42
2023-01-13T08:34:53.737Z,30.98
2023-01-13T08:37:22.530Z,37.90
2023-01-13T08:39:51.373Z,24.92
2023-01-13T08:42:20.930Z,35.33
2023-01-13T08:44:54.385Z,26.90
2023-01-13T08:47:23.227Z,20.52
2023-01-13T08:49:54.532Z,27.85
2023-01-13T08:52:23.779Z,29.83
2023-01-13T08:54:55.969Z,21.73
2023-01-13T08:57:24.885Z,27.05
2023-01-13T08:59:57.625Z,32.83
2023-01-13T09:02:27.899Z,31.10
2023-01-13T09:04:58.084Z,34.10
2023-01-13T09:07:27.493Z,31.17
2023-01-13T09:09:57.151Z,32.22
2023-01-13T09:12:44.155Z,29.75
2023-01-13T09:15:18.458Z,20.88
2023-01-13T09:17:48.272Z,18.70
2023-01-13T09:20:17.257Z,33.63
2023-01-13T09:22:46.430Z,32.53
2023-01-13T09:25:15.436Z,19.63
2023-01-13T09:27:44.647Z,33.53
2023-01-13T09:30:15.902Z,25.23
2023-01-13T09:32:45.192Z,21.85
2023-01-13T09:35:13.997Z,26.48
2023-01-13T09:37:43.277Z,19.85
2023-01-13T09:40:19.493Z,26.52
2023-01-13T09:43:11.788Z,19.88
2023-01-13T09:45:47.998Z,25.65
2023-01-13T09:48:23.753Z,34.78
2023-01-13T09:51:01.930Z,23.88
2023-01-13T09:53:35.679Z,27.35
2023-01-13T09:58:34.948Z,17.52
2023-01-13T10:01:17.515Z,14.45
2023-01-13T10:03:49.493Z,32.38
2023-01-13T10:06:22.494Z,27.10
2023-01-13T10:08:52.301Z,16.27
2023-01-13T10:11:38.117Z,22.30
2023-01-13T10:14:14.841Z,17.15
2023-01-13T10:16:52.465Z,24.63
2023-01-13T10:19:27.676Z,15.80
2023-01-13T10:22:19.155Z,17.63
2023-01-13T10:25:09.952Z,20.05
2023-01-13T10:27:40.494Z,18.95
2023-01-13T10:30:14.514Z,13.18
2023-01-13T10:32:49.007Z,22.33
2023-01-13T10:35:18.510Z,18.52
2023-01-13T10:37:59.064Z,11.25
2023-01-13T10:40:28.793Z,19.08
2023-01-13T10:43:07.346Z,19.15
2023-01-13T10:45:37.533Z,25.30
2023-01-13T10:48:15.446Z,20.42
2023-01-13T10:50:48.416Z,22.42
2023-01-13T10:53:20.328Z,15.98
2023-01-13T10:56:02.853Z,21.85
2023-01-13T10:58:31.967Z,18.02
2023-01-13T11:01:03.163Z,15.07
2023-01-13T11:03:41.805Z,27.45
2023-01-13T11:06:22.203Z,25.25
2023-01-13T11:08:55.623Z,28.67
2023-01-13T11:11:40.329Z,26.10
2023-01-13T11:14:34.983Z,21.20
2023-01-13T11:17:11.874Z,17.38
2023-01-13T11:19:49.049Z,20.63
2023-01-13T11:22:22.783Z,20.95
2023-01-13T11:24:56.769Z,16.20
2023-01-13T11:27:39.508Z,15.93
2023-01-13T11:30:18.929Z,27.07
2023-01-13T11:33:01.071Z,13.82
2023-01-13T11:35:35.633Z,17.73
2023-01-13T11:38:13.861Z,23.73
2023-01-13T11:40:47.742Z,14.85
2023-01-13T11:43:27.755Z,19.95
2023-01-13T11:45:59.695Z,19.77
2023-01-13T11:48:32.298Z,17.20
2023-01-13T11:54:02.528Z,20.88
2023-01-13T11:56:57.167Z,21.17
2023-01-13T11:59:53.757Z,18.80
2023-01-13T12:02:41.505Z,16.52
2023-01-13T12:05:20.359Z,21.92
2023-01-13T12:08:00.562Z,23.73
2023-01-13T12:10:44.641Z,12.27
2023-01-13T12:13:25.631Z,17.83
2023-01-13T12:16:06.023Z,13.05
2023-01-13T12:19:11.393Z,16.40
2023-01-13T12:21:58.429Z,17.10
2023-01-13T12:24:33.083Z,13.02
2023-01-13T12:27:11.979Z,24.80
2023-01-13T12:29:41.157Z,22.45
2023-01-13T12:32:15.903Z,17.92
2023-01-13T12:34:57.345Z,25.90
2023-01-13T12:37:35.223Z,16.58
2023-01-13T12:40:27.611Z,17.10
2023-01-13T12:43:22.948Z,10.13
2023-01-13T12:45:52.465Z,17.13
2023-01-13T12:48:49.219Z,17.65
2023-01-13T12:51:26.956Z,15.85
2023-01-13T12:53:59.123Z,13.60
2023-01-13T12:56:45.849Z,17.95
2023-01-13T12:59:51.554Z,20.95
2023-01-13T13:02:39.898Z,9.10
2023-01-13T13:05:52.714Z,21.13
2023-01-13T13:08:32.701Z,10.13
2023-01-13T13:11:35.503Z,13.68
2023-01-13T13:14:07.931Z,9.07
2023-01-13T13:16:49.817Z,12.13
2023-01-13T13:19:45.374Z,16.75
2023-01-13T13:22:47.119Z,12.93
2023-01-13T13:25:28.097Z,15.68
2023-01-13T13:28:20.270Z,17.42
2023-01-13T13:31:03.810Z,11.70
2023-01-13T13:33:51.753Z,22.25
2023-01-13T13:36:42.497Z,18.30
2023-01-13T13:39:40.068Z,17.70
2023-01-13T13:42:33.079Z,22.25
2023-01-13T13:45:34.649Z,15.73
2023-01-13T13:48:27.069Z,27.30
2023-01-13T13:51:00.516Z,26.63
2023-01-13T13:53:35.790Z,13.10
2023-01-13T13:56:16.024Z,13.55
2023-01-13T13:58:45.436Z,16.02
2023-01-13T14:01:22.930Z,16.63
2023-01-13T14:04:07.416Z,11.02
2023-01-13T14:06:36.489Z,20.23
2023-01-13T14:09:05.634Z,13.82
2023-01-13T14:11:38.453Z,12.95
2023-01-13T14:14:14.001Z,18.67
2023-01-13T14:16:43.903Z,16.08
2023-01-13T14:19:27.735Z,7.63
2023-01-13T14:21:57.554Z,14.65
2023-01-13T14:24:27.416Z,24.58
2023-01-13T14:27:09.546Z,28.33
2023-01-13T14:29:38.777Z,17.83
2023-01-13T14:32:09.231Z,15.05
2023-01-13T14:34:40.617Z,13.27
2023-01-13T14:37:25.486Z,9.65
2023-01-13T14:39:56.012Z,19.10
2023-01-13T14:42:25.505Z,17.48
2023-01-13T14:44:56.332Z,25.77
2023-01-13T14:47:28.266Z,11.75
2023-01-13T14:50:03.000Z,16.05
2023-01-13T14:52:36.921Z,20.15
2023-01-13T14:55:25.228Z,11.30
2023-01-13T14:57:54.357Z,15.05
2023-01-13T15:00:26.772Z,16.10
2023-01-13T15:03:08.469Z,18.27
2023-01-13T15:05:47.769Z,15.77
2023-01-13T15:08:40.889Z,17.15
2023-01-13T15:11:25.021Z,14.27
2023-01-13T15:14:02.581Z,16.70
2023-01-13T15:16:34.960Z,17.85
2023-01-13T15:19:05.036Z,11.10
2023-01-13T15:21:37.795Z,21.83
2023-01-13T15:24:10.295Z,20.83
2023-01-13T15:26:39.877Z,20.65
2023-01-13T15:29:14.525Z,18.42
2023-01-13T15:31:46.144Z,16.08
2023-01-13T15:34:15.192Z,12.77
2023-01-13T15:36:45.833Z,12.05
2023-01-13T15:39:15.436Z,18.20
2023-01-13T15:42:02.301Z,18.52
2023-01-13T15:44:48.776Z,32.40
2023-01-13T15:47:18.043Z,8.95
2023-01-13T15:49:47.987Z,16.17
2023-01-13T15:52:22.215Z,11.85
2023-01-13T15:54:51.808Z,35.28
2023-01-13T15:57:24.548Z,19.58
2023-01-13T15:59:57.833Z,12.18
2023-01-13T16:02:27.078Z,23.35
2023-01-13T16:04:56.968Z,10.77
2023-01-13T16:07:27.902Z,23.00
2023-01-13T16:09:56.924Z,18.30
2023-01-13T16:12:25.873Z,21.20
2023-01-13T16:14:56.024Z,13.02
2023-01-13T16:17:29.795Z,16.45
2023-01-13T16:19:59.894Z,14.35
2023-01-13T16:22:30.434Z,21.35
2023-01-13T16:25:00.233Z,16.63
2023-01-13T16:27:28.949Z,16.95
2023-01-13T16:29:58.299Z,23.30
2023-01-13T16:32:27.821Z,22.65
2023-01-13T16:34:58.330Z,7.40
2023-01-13T16:37:31.161Z,6.90
2023-01-13T16:40:01.444Z,8.65
2023-01-13T16:42:31.713Z,13.95
2023-01-13T16:45:07.329Z,11.38
2023-01-13T16:47:37.615Z,20.42
2023-01-13T16:50:07.754Z,10.90
2023-01-13T16:52:38.706Z,7.30
2023-01-13T16:55:07.728Z,9.35
2023-01-13T16:57:39.312Z,13.88
2023-01-13T17:00:10.876Z,5.32
2023-01-13T17:02:40.894Z,7.28
2023-01-13T17:05:15.651Z,2.58
2023-01-13T17:07:47.851Z,6.95
2023-01-13T17:10:19.008Z,8.65
2023-01-13T17:12:49.003Z,14.93
2023-01-13T17:15:20.811Z,17.63
2023-01-13T17:17:52.334Z,10.27
2023-01-13T17:20:23.844Z,20.10
2023-01-13T17:22:58.761Z,11.85
2023-01-13T17:25:28.559Z,11.02
2023-01-13T17:28:02.191Z,15.90
2023-01-13T17:30:31.398Z,10.40
2023-01-13T17:33:00.779Z,17.40
2023-01-13T17:35:30.557Z,10.90
2023-01-13T17:38:04.007Z,8.07
2023-01-13T17:40:33.157Z,51.75
2023-01-13T17:43:03.276Z,91.53
2023-01-13T17:45:34.294Z,12.10
2023-01-13T17:48:06.340Z,16.48
2023-01-13T17:50:40.054Z,18.58
2023-01-13T17:53:11.448Z,10.80
2023-01-13T17:55:40.680Z,22.85
2023-01-13T17:58:10.054Z,9.60
2023-01-13T18:00:38.864Z,6.50
2023-01-13T18:03:08.143Z,5.50
2023-01-13T18:05:37.836Z,16.73
2023-01-13T18:08:07.671Z,11.93
2023-01-13T18:10:38.640Z,4.90
2023-01-13T18:13:09.640Z,10.23
2023-01-13T18:15:38.912Z,9.18
2023-01-13T18:18:07.916Z,13.20
2023-01-13T18:20:54.446Z,12.98
2023-01-13T18:23:41.074Z,16.13
2023-01-13T18:26:36.196Z,15.77
2023-01-13T18:29:05.539Z,19.23
2023-01-13T18:31:35.151Z,23.73
2023-01-13T18:34:04.507Z,14.88
2023-01-13T18:36:33.604Z,23.85
2023-01-13T18:39:03.533Z,13.98
2023-01-13T18:41:51.288Z,16.27
2023-01-13T18:44:21.429Z,17.52
2023-01-13T18:46:53.576Z,20.88
2023-01-13T18:49:23.132Z,19.52
2023-01-13T18:51:52.513Z,11.18
2023-01-13T18:54:21.793Z,16.27
2023-01-13T18:56:54.521Z,21.27
2023-01-13T18:59:25.109Z,10.30
2023-01-13T19:01:54.689Z,12.30
2023-01-13T19:04:27.369Z,15.80
2023-01-13T19:07:01.170Z,13.57
2023-01-13T19:09:32.595Z,9.73
2023-01-13T19:12:06.141Z,28.35
2023-01-13T19:14:37.615Z,41.40
2023-01-13T19:17:09.742Z,8.77
2023-01-13T19:19:43.788Z,9.43
2023-01-13T19:22:15.144Z,12.18
2023-01-13T19:24:47.361Z,17.00
2023-01-13T19:27:19.771Z,15.68
2023-01-13T19:29:52.516Z,15.20
2023-01-13T19:32:22.914Z,21.67
2023-01-13T19:34:53.609Z,8.38
2023-01-13T19:37:23.167Z,15.20
2023-01-13T19:39:52.277Z,22.63
2023-01-13T19:42:45.847Z,10.65
2023-01-13T19:45:30.683Z,7.50
2023-01-13T19:48:02.415Z,5.20
2023-01-13T19:50:31.549Z,19.88
2023-01-13T19:53:01.461Z,12.15
2023-01-13T19:55:32.178Z,31.48
2023-01-13T19:58:03.719Z,15.68
2023-01-13T20:00:33.662Z,3.08
2023-01-13T20:03:08.098Z,11.90
2023-01-13T20:05:37.946Z,9.07
2023-01-13T20:08:07.777Z,9.43
2023-01-13T20:10:37.624Z,3.70
2023-01-13T20:13:09.012Z,12.55
2023-01-13T20:15:39.367Z,7.18
2023-01-13T20:18:09.797Z,16.33
2023-01-13T20:20:39.085Z,18.42
2023-01-13T20:23:08.761Z,18.98
2023-01-13T20:25:38.003Z,11.80
2023-01-13T20:28:09.082Z,15.23
2023-01-13T20:30:41.737Z,6.95
2023-01-13T20:33:11.075Z,13.88
2023-01-13T20:35:40.318Z,16.27
2023-01-13T20:38:10.040Z,15.20
2023-01-13T20:40:39.257Z,11.38
2023-01-13T20:43:09.214Z,21.02
2023-01-13T20:45:40.612Z,25.27
2023-01-13T20:48:09.688Z,17.15
2023-01-13T20:50:39.165Z,17.52
2023-01-13T20:53:08.399Z,8.07
2023-01-13T20:55:40.132Z,14.77
2023-01-13T20:58:10.485Z,16.75
2023-01-13T21:00:39.383Z,10.25
2023-01-13T21:03:08.776Z,8.30
2023-01-13T21:05:38.325Z,18.38
2023-01-13T21:08:07.452Z,12.13
2023-01-13T21:10:36.590Z,12.55
2023-01-13T21:13:23.867Z,15.10
2023-01-13T21:15:57.070Z,33.70
2023-01-13T21:18:43.988Z,31.55
2023-01-13T21:21:14.389Z,12.65
2023-01-13T21:23:53.311Z,20.17
2023-01-13T21:26:24.628Z,19.27
2023-01-13T21:28:59.187Z,20.85
2023-01-13T21:31:31.874Z,16.45
2023-01-13T21:34:01.911Z,15.57
2023-01-13T21:36:32.423Z,18.55
2023-01-13T21:39:03.046Z,20.27
2023-01-13T21:41:52.820Z,19.40
2023-01-13T21:44:40.687Z,22.52
2023-01-13T21:47:34.916Z,22.02
2023-01-13T21:50:05.919Z,18.75
2023-01-13T21:52:34.851Z,15.07
2023-01-13T21:55:25.786Z,10.23
2023-01-13T21:57:57.206Z,18.70
2023-01-13T22:00:31.932Z,18.13
2023-01-13T22:03:04.474Z,17.02
2023-01-13T22:05:35.732Z,16.05
2023-01-13T22:08:07.360Z,14.63
2023-01-13T22:10:58.322Z,14.23
2023-01-13T22:13:47.724Z,12.30
2023-01-13T22:16:19.340Z,13.40
2023-01-13T22:18:50.410Z,16.80
2023-01-13T22:21:20.898Z,23.17
2023-01-13T22:23:51.044Z,19.08
2023-01-13T22:26:21.067Z,26.00
2023-01-13T22:28:52.204Z,13.57
2023-01-13T22:31:24.769Z,14.73
2023-01-13T22:33:57.106Z,19.38
2023-01-13T22:36:27.074Z,31.10
2023-01-13T22:38:57.646Z,20.80
2023-01-13T22:41:27.314Z,14.73
2023-01-13T22:43:57.309Z,25.05
2023-01-13T22:46:27.800Z,16.13
2023-01-13T22:49:00.831Z,22.48
2023-01-13T22:51:31.966Z,13.40
2023-01-13T22:54:01.842Z,16.88
2023-01-13T22:56:31.868Z,16.70
2023-01-13T22:59:03.614Z,19.80
2023-01-13T23:01:34.825Z,24.00
2023-01-13T23:04:06.550Z,25.80
2023-01-13T23:06:41.455Z,18.15
2023-01-13T23:09:11.529Z,19.77
2023-01-13T23:11:42.722Z,15.65
2023-01-13T23:14:14.375Z,23.67
2023-01-13T23:16:44.238Z,15.57
2023-01-13T23:19:17.598Z,16.55
2023-01-13T23:21:47.626Z,9.20
2023-01-13T23:24:18.117Z,16.75
2023-01-13T23:26:48.087Z,22.00
2023-01-13T23:29:18.443Z,27.27
2023-01-13T23:31:48.863Z,21.65
2023-01-13T23:34:19.690Z,19.10
2023-01-13T23:36:49.509Z,15.57
2023-01-13T23:39:19.638Z,15.05
2023-01-13T23:41:52.710Z,20.85
2023-01-13T23:44:22.793Z,28.88
2023-01-13T23:46:52.982Z,20.40
2023-01-13T23:49:24.268Z,17.17
2023-01-13T23:51:54.491Z,21.85
2023-01-13T23:54:24.779Z,17.33
2023-01-13T23:56:55.163Z,27.35
2023-01-13T23:59:27.211Z,16.35
